sensor_id;sensor_type;location;lat;lon;timestamp;P1;durP1;ratioP1;P2;durP2;ratioP2
22068;SDS011;13887;57.196;-2.100;2022-07-25T00:00:06;12.80;;;12.30;;
22068;SDS011;13887;57.196;-2.100;2022-07-25T00:02:34;13.17;;;12.40;;
22068;SDS011;13887;57.196;-2.100;2022-07-25T00:05:01;12.90;;;12.40;;
22068;SDS011;13887;57.196;-2.100;2022-07-25T00:07:29;13.13;;;12.50;;
22068;SDS011;13887;57.196;-2.100;2022-07-25T00:09:55;13.57;;;12.90;;
22068;SDS011;13887;57.196;-2.100;2022-07-25T00:12:21;13.00;;;12.40;;
22068;SDS011;13887;57.196;-2.100;2022-07-25T00:14:48;13.33;;;12.63;;
22068;SDS011;13887;57.196;-2.100;2022-07-25T00:17:14;13.40;;;12.90;;
22068;SDS011;13887;57.196;-2.100;2022-07-25T00:19:40;12.43;;;11.93;;
22068;SDS011;13887;57.196;-2.100;2022-07-25T00:22:06;13.07;;;12.57;;
22068;SDS011;13887;57.196;-2.100;2022-07-25T00:24:33;12.80;;;12.30;;
22068;SDS011;13887;57.196;-2.100;2022-07-25T00:26:59;13.20;;;12.60;;
22068;SDS011;13887;57.196;-2.100;2022-07-25T00:29:27;13.00;;;12.50;;
22068;SDS011;13887;57.196;-2.100;2022-07-25T00:31:54;13.10;;;12.50;;
22068;SDS011;13887;57.196;-2.100;2022-07-25T00:34:20;13.67;;;12.60;;
22068;SDS011;13887;57.196;-2.100;2022-07-25T00:36:46;12.60;;;12.10;;
22068;SDS011;13887;57.196;-2.100;2022-07-25T00:39:12;12.97;;;12.30;;
22068;SDS011;13887;57.196;-2.100;2022-07-25T00:41:39;12.93;;;12.43;;
22068;SDS011;13887;57.196;-2.100;2022-07-25T00:44:05;12.50;;;11.90;;
22068;SDS011;13887;57.196;-2.100;2022-07-25T00:46:32;12.60;;;12.10;;
22068;SDS011;13887;57.196;-2.100;2022-07-25T00:48:59;12.80;;;12.20;;
22068;SDS011;13887;57.196;-2.100;2022-07-25T00:51:26;13.30;;;12.60;;
22068;SDS011;13887;57.196;-2.100;2022-07-25T00:53:52;13.30;;;12.80;;
22068;SDS011;13887;57.196;-2.100;2022-07-25T00:56:19;12.80;;;12.30;;
22068;SDS011;13887;57.196;-2.100;2022-07-25T00:58:46;13.63;;;12.93;;
22068;SDS011;13887;57.196;-2.100;2022-07-25T01:01:12;13.07;;;12.53;;
22068;SDS011;13887;57.196;-2.100;2022-07-25T01:03:39;13.40;;;12.80;;
22068;SDS011;13887;57.196;-2.100;2022-07-25T01:06:06;13.27;;;12.67;;
22068;SDS011;13887;57.196;-2.100;2022-07-25T01:08:32;13.10;;;12.40;;
22068;SDS011;13887;57.196;-2.100;2022-07-25T01:10:59;13.27;;;12.73;;
22068;SDS011;13887;57.196;-2.100;2022-07-25T01:13:26;13.43;;;12.73;;
22068;SDS011;13887;57.196;-2.100;2022-07-25T01:15:52;13.10;;;12.50;;
22068;SDS011;13887;57.196;-2.100;2022-07-25T01:18:18;13.60;;;13.00;;
22068;SDS011;13887;57.196;-2.100;2022-07-25T01:20:45;13.70;;;13.10;;
22068;SDS011;13887;57.196;-2.100;2022-07-25T01:23:11;13.07;;;12.57;;
22068;SDS011;13887;57.196;-2.100;2022-07-25T01:25:37;13.43;;;12.90;;
22068;SDS011;13887;57.196;-2.100;2022-07-25T01:28:04;13.73;;;13.03;;
22068;SDS011;13887;57.196;-2.100;2022-07-25T01:30:30;13.67;;;13.07;;
22068;SDS011;13887;57.196;-2.100;2022-07-25T01:32:57;13.47;;;12.97;;
22068;SDS011;13887;57.196;-2.100;2022-07-25T01:35:23;14.07;;;13.47;;
22068;SDS011;13887;57.196;-2.100;2022-07-25T01:37:49;13.90;;;13.23;;
22068;SDS011;13887;57.196;-2.100;2022-07-25T01:40:15;13.80;;;13.03;;
22068;SDS011;13887;57.196;-2.100;2022-07-25T01:42:42;13.53;;;12.93;;
22068;SDS011;13887;57.196;-2.100;2022-07-25T01:45:09;13.27;;;12.77;;
22068;SDS011;13887;57.196;-2.100;2022-07-25T01:47:36;13.27;;;12.77;;
22068;SDS011;13887;57.196;-2.100;2022-07-25T01:50:03;13.07;;;12.47;;
22068;SDS011;13887;57.196;-2.100;2022-07-25T01:52:30;13.33;;;12.83;;
22068;SDS011;13887;57.196;-2.100;2022-07-25T01:54:56;12.90;;;12.40;;
22068;SDS011;13887;57.196;-2.100;2022-07-25T01:57:22;13.53;;;12.93;;
22068;SDS011;13887;57.196;-2.100;2022-07-25T01:59:56;13.37;;;12.77;;
22068;SDS011;13887;57.196;-2.100;2022-07-25T02:02:22;13.10;;;12.60;;
22068;SDS011;13887;57.196;-2.100;2022-07-25T02:04:49;12.87;;;12.37;;
22068;SDS011;13887;57.196;-2.100;2022-07-25T02:07:15;13.03;;;12.53;;
22068;SDS011;13887;57.196;-2.100;2022-07-25T02:09:41;12.57;;;12.13;;
22068;SDS011;13887;57.196;-2.100;2022-07-25T02:12:07;12.60;;;12.10;;
22068;SDS011;13887;57.196;-2.100;2022-07-25T02:14:34;12.60;;;12.10;;
22068;SDS011;13887;57.196;-2.100;2022-07-25T02:17:00;12.70;;;12.20;;
22068;SDS011;13887;57.196;-2.100;2022-07-25T02:19:26;12.73;;;12.23;;
22068;SDS011;13887;57.196;-2.100;2022-07-25T02:21:53;12.50;;;12.00;;
22068;SDS011;13887;57.196;-2.100;2022-07-25T02:24:19;12.73;;;12.23;;
22068;SDS011;13887;57.196;-2.100;2022-07-25T02:26:45;12.63;;;12.23;;
22068;SDS011;13887;57.196;-2.100;2022-07-25T02:29:11;12.80;;;12.40;;
22068;SDS011;13887;57.196;-2.100;2022-07-25T02:31:38;12.27;;;11.70;;
22068;SDS011;13887;57.196;-2.100;2022-07-25T02:34:04;12.60;;;11.70;;
22068;SDS011;13887;57.196;-2.100;2022-07-25T02:36:31;12.23;;;11.83;;
22068;SDS011;13887;57.196;-2.100;2022-07-25T02:38:57;11.90;;;11.33;;
22068;SDS011;13887;57.196;-2.100;2022-07-25T02:41:23;12.17;;;11.67;;
22068;SDS011;13887;57.196;-2.100;2022-07-25T02:43:49;12.20;;;11.70;;
22068;SDS011;13887;57.196;-2.100;2022-07-25T02:46:16;11.73;;;11.33;;
22068;SDS011;13887;57.196;-2.100;2022-07-25T02:48:42;12.50;;;11.90;;
22068;SDS011;13887;57.196;-2.100;2022-07-25T02:51:08;12.23;;;11.63;;
22068;SDS011;13887;57.196;-2.100;2022-07-25T02:53:35;12.10;;;11.70;;
22068;SDS011;13887;57.196;-2.100;2022-07-25T02:56:21;12.37;;;11.77;;
22068;SDS011;13887;57.196;-2.100;2022-07-25T02:58:48;12.10;;;11.70;;
22068;SDS011;13887;57.196;-2.100;2022-07-25T03:01:15;11.90;;;11.50;;
22068;SDS011;13887;57.196;-2.100;2022-07-25T03:03:41;12.33;;;11.83;;
22068;SDS011;13887;57.196;-2.100;2022-07-25T03:06:07;12.23;;;11.83;;
22068;SDS011;13887;57.196;-2.100;2022-07-25T03:08:34;11.90;;;11.50;;
22068;SDS011;13887;57.196;-2.100;2022-07-25T03:11:00;12.63;;;12.13;;
22068;SDS011;13887;57.196;-2.100;2022-07-25T03:13:26;12.40;;;12.00;;
22068;SDS011;13887;57.196;-2.100;2022-07-25T03:15:52;12.03;;;11.63;;
22068;SDS011;13887;57.196;-2.100;2022-07-25T03:18:18;11.87;;;11.47;;
22068;SDS011;13887;57.196;-2.100;2022-07-25T03:20:45;11.90;;;11.37;;
22068;SDS011;13887;57.196;-2.100;2022-07-25T03:23:11;11.70;;;11.30;;
22068;SDS011;13887;57.196;-2.100;2022-07-25T03:25:37;12.20;;;11.60;;
22068;SDS011;13887;57.196;-2.100;2022-07-25T03:28:03;12.27;;;11.67;;
22068;SDS011;13887;57.196;-2.100;2022-07-25T03:30:30;12.33;;;11.83;;
22068;SDS011;13887;57.196;-2.100;2022-07-25T03:32:56;12.30;;;11.80;;
22068;SDS011;13887;57.196;-2.100;2022-07-25T03:35:23;11.93;;;11.33;;
22068;SDS011;13887;57.196;-2.100;2022-07-25T03:37:50;12.00;;;11.40;;
22068;SDS011;13887;57.196;-2.100;2022-07-25T03:40:17;11.77;;;11.37;;
22068;SDS011;13887;57.196;-2.100;2022-07-25T03:42:43;12.10;;;11.60;;
22068;SDS011;13887;57.196;-2.100;2022-07-25T03:45:10;11.80;;;11.40;;
22068;SDS011;13887;57.196;-2.100;2022-07-25T03:47:36;11.47;;;10.87;;
22068;SDS011;13887;57.196;-2.100;2022-07-25T03:50:02;11.80;;;11.20;;
22068;SDS011;13887;57.196;-2.100;2022-07-25T03:52:29;11.70;;;11.30;;
22068;SDS011;13887;57.196;-2.100;2022-07-25T03:54:55;11.80;;;11.30;;
22068;SDS011;13887;57.196;-2.100;2022-07-25T03:57:22;11.70;;;11.30;;
22068;SDS011;13887;57.196;-2.100;2022-07-25T03:59:48;11.40;;;11.00;;
22068;SDS011;13887;57.196;-2.100;2022-07-25T04:02:14;11.47;;;11.00;;
22068;SDS011;13887;57.196;-2.100;2022-07-25T04:04:40;11.70;;;11.20;;
22068;SDS011;13887;57.196;-2.100;2022-07-25T04:07:07;11.77;;;11.30;;
22068;SDS011;13887;57.196;-2.100;2022-07-25T04:09:33;11.50;;;11.10;;
22068;SDS011;13887;57.196;-2.100;2022-07-25T04:12:00;11.80;;;11.30;;
22068;SDS011;13887;57.196;-2.100;2022-07-25T04:14:26;11.63;;;11.23;;
22068;SDS011;13887;57.196;-2.100;2022-07-25T04:16:52;11.63;;;11.23;;
22068;SDS011;13887;57.196;-2.100;2022-07-25T04:19:19;12.00;;;11.60;;
22068;SDS011;13887;57.196;-2.100;2022-07-25T04:21:45;11.73;;;11.23;;
22068;SDS011;13887;57.196;-2.100;2022-07-25T04:24:11;12.20;;;11.70;;
22068;SDS011;13887;57.196;-2.100;2022-07-25T04:26:37;11.90;;;11.40;;
22068;SDS011;13887;57.196;-2.100;2022-07-25T04:29:04;11.90;;;11.40;;
22068;SDS011;13887;57.196;-2.100;2022-07-25T04:31:30;11.83;;;11.23;;
22068;SDS011;13887;57.196;-2.100;2022-07-25T04:33:57;12.17;;;11.57;;
22068;SDS011;13887;57.196;-2.100;2022-07-25T04:36:24;12.57;;;12.00;;
22068;SDS011;13887;57.196;-2.100;2022-07-25T04:38:51;12.53;;;12.03;;
22068;SDS011;13887;57.196;-2.100;2022-07-25T04:41:18;12.63;;;12.00;;
22068;SDS011;13887;57.196;-2.100;2022-07-25T04:43:44;12.03;;;11.53;;
22068;SDS011;13887;57.196;-2.100;2022-07-25T04:46:21;12.40;;;11.63;;
22068;SDS011;13887;57.196;-2.100;2022-07-25T04:48:48;12.30;;;11.70;;
22068;SDS011;13887;57.196;-2.100;2022-07-25T04:51:15;12.17;;;11.77;;
22068;SDS011;13887;57.196;-2.100;2022-07-25T04:53:42;12.00;;;11.60;;
22068;SDS011;13887;57.196;-2.100;2022-07-25T04:56:09;12.20;;;11.80;;
22068;SDS011;13887;57.196;-2.100;2022-07-25T04:58:35;11.73;;;11.33;;
22068;SDS011;13887;57.196;-2.100;2022-07-25T05:01:01;12.37;;;11.87;;
22068;SDS011;13887;57.196;-2.100;2022-07-25T05:03:28;12.40;;;11.80;;
22068;SDS011;13887;57.196;-2.100;2022-07-25T05:05:54;13.23;;;12.73;;
22068;SDS011;13887;57.196;-2.100;2022-07-25T05:08:20;12.47;;;11.93;;
22068;SDS011;13887;57.196;-2.100;2022-07-25T05:10:47;12.27;;;11.77;;
22068;SDS011;13887;57.196;-2.100;2022-07-25T05:13:13;12.77;;;12.27;;
22068;SDS011;13887;57.196;-2.100;2022-07-25T05:15:41;12.67;;;12.17;;
22068;SDS011;13887;57.196;-2.100;2022-07-25T05:18:08;12.60;;;12.10;;
22068;SDS011;13887;57.196;-2.100;2022-07-25T05:20:34;12.30;;;11.70;;
22068;SDS011;13887;57.196;-2.100;2022-07-25T05:23:00;12.40;;;11.87;;
22068;SDS011;13887;57.196;-2.100;2022-07-25T05:25:26;12.20;;;11.73;;
22068;SDS011;13887;57.196;-2.100;2022-07-25T05:27:53;12.33;;;11.90;;
22068;SDS011;13887;57.196;-2.100;2022-07-25T05:30:22;12.00;;;11.60;;
22068;SDS011;13887;57.196;-2.100;2022-07-25T05:32:48;12.47;;;12.07;;
22068;SDS011;13887;57.196;-2.100;2022-07-25T05:35:14;12.43;;;11.87;;
22068;SDS011;13887;57.196;-2.100;2022-07-25T05:37:41;12.30;;;11.90;;
22068;SDS011;13887;57.196;-2.100;2022-07-25T05:40:07;12.17;;;11.77;;
22068;SDS011;13887;57.196;-2.100;2022-07-25T05:42:34;12.40;;;11.80;;
22068;SDS011;13887;57.196;-2.100;2022-07-25T05:45:00;11.90;;;11.50;;
22068;SDS011;13887;57.196;-2.100;2022-07-25T05:47:26;12.00;;;11.60;;
22068;SDS011;13887;57.196;-2.100;2022-07-25T05:49:53;12.07;;;11.67;;
22068;SDS011;13887;57.196;-2.100;2022-07-25T05:52:19;12.13;;;11.73;;
22068;SDS011;13887;57.196;-2.100;2022-07-25T05:54:45;12.30;;;11.83;;
22068;SDS011;13887;57.196;-2.100;2022-07-25T05:57:12;11.93;;;11.37;;
22068;SDS011;13887;57.196;-2.100;2022-07-25T05:59:38;12.37;;;11.97;;
22068;SDS011;13887;57.196;-2.100;2022-07-25T06:02:04;12.23;;;11.73;;
22068;SDS011;13887;57.196;-2.100;2022-07-25T06:04:31;12.53;;;12.13;;
22068;SDS011;13887;57.196;-2.100;2022-07-25T06:06:57;12.70;;;12.20;;
22068;SDS011;13887;57.196;-2.100;2022-07-25T06:09:24;12.70;;;12.10;;
22068;SDS011;13887;57.196;-2.100;2022-07-25T06:11:50;12.50;;;12.00;;
22068;SDS011;13887;57.196;-2.100;2022-07-25T06:14:26;12.40;;;12.00;;
22068;SDS011;13887;57.196;-2.100;2022-07-25T06:16:53;12.50;;;11.80;;
22068;SDS011;13887;57.196;-2.100;2022-07-25T06:19:20;12.80;;;12.30;;
22068;SDS011;13887;57.196;-2.100;2022-07-25T06:21:47;12.33;;;11.93;;
22068;SDS011;13887;57.196;-2.100;2022-07-25T06:24:13;13.20;;;12.70;;
22068;SDS011;13887;57.196;-2.100;2022-07-25T06:26:40;13.00;;;12.50;;
22068;SDS011;13887;57.196;-2.100;2022-07-25T06:29:06;12.57;;;12.17;;
22068;SDS011;13887;57.196;-2.100;2022-07-25T06:31:32;12.27;;;11.77;;
22068;SDS011;13887;57.196;-2.100;2022-07-25T06:33:58;12.50;;;12.00;;
22068;SDS011;13887;57.196;-2.100;2022-07-25T06:36:25;12.80;;;12.40;;
22068;SDS011;13887;57.196;-2.100;2022-07-25T06:38:58;12.97;;;12.40;;
22068;SDS011;13887;57.196;-2.100;2022-07-25T06:41:25;12.70;;;12.20;;
22068;SDS011;13887;57.196;-2.100;2022-07-25T06:43:51;12.80;;;12.33;;
22068;SDS011;13887;57.196;-2.100;2022-07-25T06:46:17;12.20;;;11.80;;
22068;SDS011;13887;57.196;-2.100;2022-07-25T06:48:44;12.43;;;12.03;;
22068;SDS011;13887;57.196;-2.100;2022-07-25T06:51:10;12.33;;;11.93;;
22068;SDS011;13887;57.196;-2.100;2022-07-25T06:53:36;13.30;;;12.30;;
22068;SDS011;13887;57.196;-2.100;2022-07-25T06:56:03;12.17;;;11.60;;
22068;SDS011;13887;57.196;-2.100;2022-07-25T06:58:29;12.10;;;11.43;;
22068;SDS011;13887;57.196;-2.100;2022-07-25T07:00:55;12.00;;;11.50;;
22068;SDS011;13887;57.196;-2.100;2022-07-25T07:03:22;12.43;;;12.03;;
22068;SDS011;13887;57.196;-2.100;2022-07-25T07:05:48;12.63;;;11.83;;
22068;SDS011;13887;57.196;-2.100;2022-07-25T07:08:14;11.87;;;11.47;;
22068;SDS011;13887;57.196;-2.100;2022-07-25T07:10:40;11.37;;;10.97;;
22068;SDS011;13887;57.196;-2.100;2022-07-25T07:13:08;10.60;;;10.10;;
22068;SDS011;13887;57.196;-2.100;2022-07-25T07:15:38;12.03;;;11.40;;
22068;SDS011;13887;57.196;-2.100;2022-07-25T07:18:08;11.60;;;11.10;;
22068;SDS011;13887;57.196;-2.100;2022-07-25T07:20:34;11.37;;;10.97;;
22068;SDS011;13887;57.196;-2.100;2022-07-25T07:23:01;10.70;;;10.40;;
22068;SDS011;13887;57.196;-2.100;2022-07-25T07:25:27;9.20;;;8.63;;
22068;SDS011;13887;57.196;-2.100;2022-07-25T07:27:55;11.23;;;10.83;;
22068;SDS011;13887;57.196;-2.100;2022-07-25T07:30:21;12.23;;;11.80;;
22068;SDS011;13887;57.196;-2.100;2022-07-25T07:32:58;11.90;;;11.50;;
22068;SDS011;13887;57.196;-2.100;2022-07-25T07:35:25;12.37;;;11.97;;
22068;SDS011;13887;57.196;-2.100;2022-07-25T07:37:52;11.80;;;11.40;;
22068;SDS011;13887;57.196;-2.100;2022-07-25T07:40:19;12.57;;;11.97;;
22068;SDS011;13887;57.196;-2.100;2022-07-25T07:42:47;12.20;;;11.60;;
22068;SDS011;13887;57.196;-2.100;2022-07-25T07:47:42;12.43;;;12.03;;
22068;SDS011;13887;57.196;-2.100;2022-07-25T07:50:09;12.23;;;11.83;;
22068;SDS011;13887;57.196;-2.100;2022-07-25T07:52:36;12.50;;;12.07;;
22068;SDS011;13887;57.196;-2.100;2022-07-25T07:55:03;12.83;;;12.07;;
22068;SDS011;13887;57.196;-2.100;2022-07-25T07:57:48;12.90;;;12.40;;
22068;SDS011;13887;57.196;-2.100;2022-07-25T08:00:15;12.37;;;11.90;;
22068;SDS011;13887;57.196;-2.100;2022-07-25T08:02:43;12.47;;;11.83;;
22068;SDS011;13887;57.196;-2.100;2022-07-25T08:07:51;11.87;;;11.47;;
22068;SDS011;13887;57.196;-2.100;2022-07-25T08:10:22;12.67;;;12.27;;
22068;SDS011;13887;57.196;-2.100;2022-07-25T08:12:50;12.73;;;12.33;;
22068;SDS011;13887;57.196;-2.100;2022-07-25T08:15:18;12.57;;;12.13;;
22068;SDS011;13887;57.196;-2.100;2022-07-25T08:17:46;12.23;;;11.83;;
22068;SDS011;13887;57.196;-2.100;2022-07-25T08:20:15;12.50;;;12.10;;
22068;SDS011;13887;57.196;-2.100;2022-07-25T08:23:02;12.20;;;11.70;;
22068;SDS011;13887;57.196;-2.100;2022-07-25T08:25:29;13.10;;;12.60;;
22068;SDS011;13887;57.196;-2.100;2022-07-25T08:27:56;12.73;;;12.33;;
22068;SDS011;13887;57.196;-2.100;2022-07-25T08:30:23;12.80;;;12.30;;
22068;SDS011;13887;57.196;-2.100;2022-07-25T08:32:50;12.17;;;11.67;;
22068;SDS011;13887;57.196;-2.100;2022-07-25T08:35:19;12.70;;;12.00;;
22068;SDS011;13887;57.196;-2.100;2022-07-25T08:37:47;12.20;;;11.60;;
22068;SDS011;13887;57.196;-2.100;2022-07-25T08:40:14;12.90;;;12.40;;
22068;SDS011;13887;57.196;-2.100;2022-07-25T08:42:42;11.90;;;11.30;;
22068;SDS011;13887;57.196;-2.100;2022-07-25T08:45:09;13.27;;;12.67;;
22068;SDS011;13887;57.196;-2.100;2022-07-25T08:47:42;13.03;;;12.50;;
22068;SDS011;13887;57.196;-2.100;2022-07-25T08:50:13;12.87;;;12.43;;
22068;SDS011;13887;57.196;-2.100;2022-07-25T08:52:42;13.07;;;12.57;;
22068;SDS011;13887;57.196;-2.100;2022-07-25T08:55:11;12.90;;;12.40;;
22068;SDS011;13887;57.196;-2.100;2022-07-25T08:57:41;13.00;;;12.50;;
22068;SDS011;13887;57.196;-2.100;2022-07-25T09:00:11;13.10;;;12.60;;
22068;SDS011;13887;57.196;-2.100;2022-07-25T09:02:40;13.40;;;12.90;;
22068;SDS011;13887;57.196;-2.100;2022-07-25T09:05:07;13.53;;;13.03;;
22068;SDS011;13887;57.196;-2.100;2022-07-25T09:12:39;13.10;;;12.60;;
22068;SDS011;13887;57.196;-2.100;2022-07-25T09:15:06;13.57;;;12.90;;
22068;SDS011;13887;57.196;-2.100;2022-07-25T09:17:35;12.37;;;11.97;;
22068;SDS011;13887;57.196;-2.100;2022-07-25T09:20:02;12.27;;;11.87;;
22068;SDS011;13887;57.196;-2.100;2022-07-25T09:22:31;12.10;;;11.70;;
22068;SDS011;13887;57.196;-2.100;2022-07-25T09:27:51;12.80;;;12.30;;
22068;SDS011;13887;57.196;-2.100;2022-07-25T09:30:18;12.13;;;11.73;;
22068;SDS011;13887;57.196;-2.100;2022-07-25T09:32:45;12.63;;;12.03;;
22068;SDS011;13887;57.196;-2.100;2022-07-25T09:35:11;12.10;;;11.70;;
22068;SDS011;13887;57.196;-2.100;2022-07-25T09:37:38;12.50;;;12.00;;
22068;SDS011;13887;57.196;-2.100;2022-07-25T09:40:11;12.33;;;11.80;;
22068;SDS011;13887;57.196;-2.100;2022-07-25T09:42:40;11.77;;;11.37;;
22068;SDS011;13887;57.196;-2.100;2022-07-25T09:45:08;12.00;;;11.40;;
22068;SDS011;13887;57.196;-2.100;2022-07-25T09:47:49;12.17;;;11.77;;
22068;SDS011;13887;57.196;-2.100;2022-07-25T09:50:25;12.23;;;11.73;;
22068;SDS011;13887;57.196;-2.100;2022-07-25T09:52:53;12.17;;;11.77;;
22068;SDS011;13887;57.196;-2.100;2022-07-25T09:55:21;11.83;;;11.43;;
22068;SDS011;13887;57.196;-2.100;2022-07-25T09:57:48;12.40;;;12.00;;
22068;SDS011;13887;57.196;-2.100;2022-07-25T10:00:18;12.17;;;11.77;;
22068;SDS011;13887;57.196;-2.100;2022-07-25T10:02:49;12.23;;;11.73;;
22068;SDS011;13887;57.196;-2.100;2022-07-25T10:07:52;12.50;;;12.00;;
22068;SDS011;13887;57.196;-2.100;2022-07-25T10:10:21;11.90;;;11.40;;
22068;SDS011;13887;57.196;-2.100;2022-07-25T10:12:57;12.00;;;11.60;;
22068;SDS011;13887;57.196;-2.100;2022-07-25T10:15:25;12.47;;;11.97;;
22068;SDS011;13887;57.196;-2.100;2022-07-25T10:18:02;11.10;;;10.70;;
22068;SDS011;13887;57.196;-2.100;2022-07-25T10:20:29;12.68;;;11.95;;
22068;SDS011;13887;57.196;-2.100;2022-07-25T10:22:55;12.00;;;11.60;;
22068;SDS011;13887;57.196;-2.100;2022-07-25T10:25:23;11.30;;;10.80;;
22068;SDS011;13887;57.196;-2.100;2022-07-25T10:27:51;11.80;;;11.40;;
22068;SDS011;13887;57.196;-2.100;2022-07-25T10:30:38;11.93;;;11.43;;
22068;SDS011;13887;57.196;-2.100;2022-07-25T10:33:16;11.70;;;11.30;;
22068;SDS011;13887;57.196;-2.100;2022-07-25T10:35:44;12.13;;;11.63;;
22068;SDS011;13887;57.196;-2.100;2022-07-25T10:38:10;12.37;;;11.77;;
22068;SDS011;13887;57.196;-2.100;2022-07-25T10:40:43;12.43;;;11.83;;
22068;SDS011;13887;57.196;-2.100;2022-07-25T10:43:19;12.00;;;11.60;;
22068;SDS011;13887;57.196;-2.100;2022-07-25T10:45:48;11.83;;;11.43;;
22068;SDS011;13887;57.196;-2.100;2022-07-25T10:48:25;12.00;;;11.50;;
22068;SDS011;13887;57.196;-2.100;2022-07-25T10:51:01;12.37;;;11.87;;
22068;SDS011;13887;57.196;-2.100;2022-07-25T10:56:02;12.93;;;12.30;;
22068;SDS011;13887;57.196;-2.100;2022-07-25T11:01:19;12.60;;;11.87;;
22068;SDS011;13887;57.196;-2.100;2022-07-25T11:03:46;12.63;;;11.80;;
22068;SDS011;13887;57.196;-2.100;2022-07-25T11:06:13;12.50;;;11.90;;
22068;SDS011;13887;57.196;-2.100;2022-07-25T11:08:41;12.67;;;12.07;;
22068;SDS011;13887;57.196;-2.100;2022-07-25T11:11:08;12.87;;;12.20;;
22068;SDS011;13887;57.196;-2.100;2022-07-25T11:13:37;12.40;;;11.80;;
22068;SDS011;13887;57.196;-2.100;2022-07-25T11:16:08;12.00;;;11.50;;
22068;SDS011;13887;57.196;-2.100;2022-07-25T11:18:36;12.70;;;12.00;;
22068;SDS011;13887;57.196;-2.100;2022-07-25T11:21:05;12.43;;;11.83;;
22068;SDS011;13887;57.196;-2.100;2022-07-25T11:23:33;12.47;;;12.00;;
22068;SDS011;13887;57.196;-2.100;2022-07-25T11:26:08;12.20;;;11.70;;
22068;SDS011;13887;57.196;-2.100;2022-07-25T11:28:43;11.77;;;11.20;;
22068;SDS011;13887;57.196;-2.100;2022-07-25T11:31:12;13.10;;;12.30;;
22068;SDS011;13887;57.196;-2.100;2022-07-25T11:33:40;12.93;;;12.33;;
22068;SDS011;13887;57.196;-2.100;2022-07-25T11:36:08;12.27;;;11.77;;
22068;SDS011;13887;57.196;-2.100;2022-07-25T11:38:36;12.80;;;12.20;;
22068;SDS011;13887;57.196;-2.100;2022-07-25T11:41:04;12.30;;;11.80;;
22068;SDS011;13887;57.196;-2.100;2022-07-25T11:43:31;12.57;;;11.80;;
22068;SDS011;13887;57.196;-2.100;2022-07-25T11:45:58;12.30;;;11.70;;
22068;SDS011;13887;57.196;-2.100;2022-07-25T11:49:01;12.30;;;11.60;;
22068;SDS011;13887;57.196;-2.100;2022-07-25T11:51:34;11.83;;;11.17;;
22068;SDS011;13887;57.196;-2.100;2022-07-25T11:54:11;11.57;;;10.97;;
22068;SDS011;13887;57.196;-2.100;2022-07-25T11:56:41;11.50;;;11.10;;
22068;SDS011;13887;57.196;-2.100;2022-07-25T11:59:10;12.40;;;11.80;;
22068;SDS011;13887;57.196;-2.100;2022-07-25T12:01:38;12.17;;;11.67;;
22068;SDS011;13887;57.196;-2.100;2022-07-25T12:04:09;12.00;;;11.33;;
22068;SDS011;13887;57.196;-2.100;2022-07-25T12:06:44;12.27;;;11.67;;
22068;SDS011;13887;57.196;-2.100;2022-07-25T12:09:18;11.80;;;11.30;;
22068;SDS011;13887;57.196;-2.100;2022-07-25T12:11:47;12.13;;;11.53;;
22068;SDS011;13887;57.196;-2.100;2022-07-25T12:14:14;12.73;;;12.10;;
22068;SDS011;13887;57.196;-2.100;2022-07-25T12:16:41;12.83;;;12.13;;
22068;SDS011;13887;57.196;-2.100;2022-07-25T12:19:08;13.20;;;12.50;;
22068;SDS011;13887;57.196;-2.100;2022-07-25T12:21:42;13.33;;;12.57;;
22068;SDS011;13887;57.196;-2.100;2022-07-25T12:24:08;14.00;;;12.70;;
22068;SDS011;13887;57.196;-2.100;2022-07-25T12:26:34;14.13;;;13.13;;
22068;SDS011;13887;57.196;-2.100;2022-07-25T12:29:01;13.80;;;12.70;;
22068;SDS011;13887;57.196;-2.100;2022-07-25T12:31:27;14.17;;;13.13;;
22068;SDS011;13887;57.196;-2.100;2022-07-25T12:33:54;12.17;;;11.47;;
22068;SDS011;13887;57.196;-2.100;2022-07-25T12:36:20;12.70;;;11.57;;
22068;SDS011;13887;57.196;-2.100;2022-07-25T12:38:47;12.77;;;11.90;;
22068;SDS011;13887;57.196;-2.100;2022-07-25T12:41:13;13.70;;;12.63;;
22068;SDS011;13887;57.196;-2.100;2022-07-25T12:43:43;13.03;;;12.23;;
22068;SDS011;13887;57.196;-2.100;2022-07-25T12:46:09;14.70;;;13.60;;
22068;SDS011;13887;57.196;-2.100;2022-07-25T12:48:36;14.70;;;13.50;;
22068;SDS011;13887;57.196;-2.100;2022-07-25T12:51:02;14.80;;;13.77;;
22068;SDS011;13887;57.196;-2.100;2022-07-25T12:53:29;15.37;;;14.10;;
22068;SDS011;13887;57.196;-2.100;2022-07-25T12:55:55;15.17;;;14.20;;
22068;SDS011;13887;57.196;-2.100;2022-07-25T12:58:21;15.60;;;14.43;;
22068;SDS011;13887;57.196;-2.100;2022-07-25T13:00:48;15.53;;;14.00;;
22068;SDS011;13887;57.196;-2.100;2022-07-25T13:03:14;15.50;;;14.40;;
22068;SDS011;13887;57.196;-2.100;2022-07-25T13:05:41;15.30;;;14.17;;
22068;SDS011;13887;57.196;-2.100;2022-07-25T13:08:07;15.60;;;14.60;;
22068;SDS011;13887;57.196;-2.100;2022-07-25T13:10:34;15.67;;;14.30;;
22068;SDS011;13887;57.196;-2.100;2022-07-25T13:13:00;14.67;;;13.60;;
22068;SDS011;13887;57.196;-2.100;2022-07-25T13:15:27;14.80;;;13.80;;
22068;SDS011;13887;57.196;-2.100;2022-07-25T13:17:55;15.07;;;13.77;;
22068;SDS011;13887;57.196;-2.100;2022-07-25T13:20:21;14.37;;;13.57;;
22068;SDS011;13887;57.196;-2.100;2022-07-25T13:22:48;14.73;;;13.90;;
22068;SDS011;13887;57.196;-2.100;2022-07-25T13:25:14;15.07;;;13.97;;
22068;SDS011;13887;57.196;-2.100;2022-07-25T13:27:41;14.50;;;13.33;;
22068;SDS011;13887;57.196;-2.100;2022-07-25T13:30:07;14.47;;;13.67;;
22068;SDS011;13887;57.196;-2.100;2022-07-25T13:32:33;15.07;;;13.87;;
22068;SDS011;13887;57.196;-2.100;2022-07-25T13:35:00;15.40;;;14.40;;
22068;SDS011;13887;57.196;-2.100;2022-07-25T13:37:26;15.10;;;14.00;;
22068;SDS011;13887;57.196;-2.100;2022-07-25T13:39:53;14.77;;;13.83;;
22068;SDS011;13887;57.196;-2.100;2022-07-25T13:42:19;15.17;;;14.30;;
22068;SDS011;13887;57.196;-2.100;2022-07-25T13:44:45;15.27;;;14.40;;
22068;SDS011;13887;57.196;-2.100;2022-07-25T13:47:11;14.90;;;13.80;;
22068;SDS011;13887;57.196;-2.100;2022-07-25T13:49:38;15.33;;;14.43;;
22068;SDS011;13887;57.196;-2.100;2022-07-25T13:52:05;14.83;;;14.00;;
22068;SDS011;13887;57.196;-2.100;2022-07-25T13:54:31;14.53;;;13.83;;
22068;SDS011;13887;57.196;-2.100;2022-07-25T13:56:58;14.60;;;13.83;;
22068;SDS011;13887;57.196;-2.100;2022-07-25T13:59:25;14.90;;;13.93;;
22068;SDS011;13887;57.196;-2.100;2022-07-25T14:01:52;14.47;;;13.67;;
22068;SDS011;13887;57.196;-2.100;2022-07-25T14:04:18;14.47;;;13.63;;
22068;SDS011;13887;57.196;-2.100;2022-07-25T14:06:45;14.80;;;13.90;;
22068;SDS011;13887;57.196;-2.100;2022-07-25T14:09:17;14.90;;;14.00;;
22068;SDS011;13887;57.196;-2.100;2022-07-25T14:11:44;16.03;;;14.77;;
22068;SDS011;13887;57.196;-2.100;2022-07-25T14:14:11;14.47;;;13.70;;
22068;SDS011;13887;57.196;-2.100;2022-07-25T14:16:37;15.90;;;14.90;;
22068;SDS011;13887;57.196;-2.100;2022-07-25T14:19:03;14.93;;;13.93;;
22068;SDS011;13887;57.196;-2.100;2022-07-25T14:21:30;15.63;;;14.43;;
22068;SDS011;13887;57.196;-2.100;2022-07-25T14:23:56;15.40;;;14.37;;
22068;SDS011;13887;57.196;-2.100;2022-07-25T14:26:23;16.07;;;14.63;;
22068;SDS011;13887;57.196;-2.100;2022-07-25T14:28:50;15.37;;;14.20;;
22068;SDS011;13887;57.196;-2.100;2022-07-25T14:31:16;15.63;;;14.43;;